Time;durP1;ratioP1;P1;durP2;ratioP2;P2;SDS_P1;SDS_P2;PMS_P1;PMS_P2;Temp;Humidity;BMP_temperature;BMP_pressure;BME280_temperature;BME280_humidity;BME280_pressure;Samples;Min_cycle;Max_cycle;Signal;HPM_P1;HPM_P2
2023/02/21 02:13:59;;;;;;;5.20;1.85;;;;;;;;;;5028282;28;20097;-66
2023/02/21 02:16:25;;;;;;;4.43;1.73;;;;;;;;;;5032841;28;20017;-67
2023/02/21 02:18:59;;;;;;;4.60;1.73;;;;;;;;;;5024452;28;20032;-67
2023/02/21 02:21:24;;;;;;;7.65;2.03;;;;;;;;;;5046926;28;20028;-65
2023/02/21 02:24:16;;;;;;;6.72;1.80;;;;;;;;;;5039322;28;20028;-66
2023/02/21 02:27:03;;;;;;;4.53;1.70;;;;;;;;;;5039058;28;20092;-65
2023/02/21 02:29:50;;;;;;;4.95;1.75;;;;;;;;;;5023180;28;20016;-65
2023/02/21 02:32:15;;;;;;;4.18;1.55;;;;;;;;;;5033154;28;20424;-67
2023/02/21 02:34:50;;;;;;;5.10;1.90;;;;;;;;;;5040526;28;20354;-66
2023/02/21 02:37:15;;;;;;;4.35;1.80;;;;;;;;;;5038042;28;20029;-66
2023/02/21 02:39:47;;;;;;;5.00;1.85;;;;;;;;;;5039206;28;20037;-65
2023/02/21 02:42:20;;;;;;;4.95;1.60;;;;;;;;;;5040103;28;20032;-65
2023/02/21 02:44:58;;;;;;;4.70;1.60;;;;;;;;;;5027497;28;20017;-66
2023/02/21 02:47:27;;;;;;;4.03;1.50;;;;;;;;;;5030850;28;20028;-66
2023/02/21 02:49:53;;;;;;;4.72;1.80;;;;;;;;;;5040778;28;20116;-66
2023/02/21 02:52:18;;;;;;;4.90;1.80;;;;;;;;;;5031276;28;20433;-65
2023/02/21 02:54:43;;;;;;;4.05;1.48;;;;;;;;;;5039576;28;20036;-68
2023/02/21 02:57:11;;;;;;;4.50;1.75;;;;;;;;;;5040153;28;20033;-65
2023/02/21 02:59:38;;;;;;;4.70;1.85;;;;;;;;;;5044633;28;20384;-66
2023/02/21 03:02:22;;;;;;;4.70;1.55;;;;;;;;;;5032306;28;20025;-65
2023/02/21 03:05:02;;;;;;;4.57;1.60;;;;;;;;;;5027083;28;20025;-66
2023/02/21 03:07:33;;;;;;;5.13;1.75;;;;;;;;;;5035844;28;20031;-66
2023/02/21 03:10:04;;;;;;;4.50;1.75;;;;;;;;;;5046890;28;20029;-65
2023/02/21 03:12:48;;;;;;;4.40;1.58;;;;;;;;;;5037129;28;20053;-66
2023/02/21 03:15:22;;;;;;;4.97;1.85;;;;;;;;;;5038854;28;20017;-66
2023/02/21 03:17:58;;;;;;;5.60;1.90;;;;;;;;;;5032902;28;20034;-67
2023/02/21 03:20:24;;;;;;;5.25;1.92;;;;;;;;;;5035387;28;20092;-66
2023/02/21 03:22:50;;;;;;;4.70;1.85;;;;;;;;;;5026707;28;20108;-65
2023/02/21 03:25:16;;;;;;;4.78;1.92;;;;;;;;;;5039765;28;20059;-65
2023/02/21 03:27:42;;;;;;;4.88;1.80;;;;;;;;;;5037099;28;20420;-66
2023/02/21 03:30:08;;;;;;;5.80;1.90;;;;;;;;;;5036911;28;20049;-67
2023/02/21 03:32:36;;;;;;;5.43;1.70;;;;;;;;;;5034253;28;20030;-66
2023/02/21 03:35:02;;;;;;;4.10;1.73;;;;;;;;;;5028213;28;20100;-66
2023/02/21 03:37:32;;;;;;;5.32;1.88;;;;;;;;;;5032388;28;20124;-66
2023/02/21 03:39:58;;;;;;;6.00;1.77;;;;;;;;;;5041403;28;20063;-67
2023/02/21 03:42:23;;;;;;;5.38;1.70;;;;;;;;;;5038825;28;20064;-65
2023/02/21 03:44:48;;;;;;;5.57;1.80;;;;;;;;;;5035989;28;20021;-66
2023/02/21 03:47:13;;;;;;;4.50;1.73;;;;;;;;;;5043000;28;20045;-66
2023/02/21 03:49:38;;;;;;;5.18;1.70;;;;;;;;;;5033792;28;20036;-67
2023/02/21 03:52:04;;;;;;;5.03;1.88;;;;;;;;;;5023564;28;20029;-66
2023/02/21 03:54:29;;;;;;;5.68;1.80;;;;;;;;;;5041453;28;20464;-66
2023/02/21 03:56:54;;;;;;;5.07;1.80;;;;;;;;;;5040524;28;20036;-66
2023/02/21 03:59:19;;;;;;;5.60;1.77;;;;;;;;;;5049169;28;20113;-66
2023/02/21 04:01:44;;;;;;;4.70;1.70;;;;;;;;;;5040092;28;20045;-66
2023/02/21 04:04:09;;;;;;;6.10;2.20;;;;;;;;;;5029633;28;20025;-66
2023/02/21 04:06:34;;;;;;;4.47;1.85;;;;;;;;;;5033455;28;20025;-65
2023/02/21 04:09:00;;;;;;;7.60;2.28;;;;;;;;;;5033486;28;20385;-66
2023/02/21 04:11:25;;;;;;;5.47;1.92;;;;;;;;;;5037188;28;20025;-66
2023/02/21 04:13:50;;;;;;;5.30;1.92;;;;;;;;;;5050426;28;20028;-66
2023/02/21 04:16:16;;;;;;;4.97;1.90;;;;;;;;;;5041732;28;20021;-65
2023/02/21 04:18:41;;;;;;;5.87;1.90;;;;;;;;;;5044780;28;20025;-69
2023/02/21 04:21:06;;;;;;;6.43;2.00;;;;;;;;;;5028357;28;20109;-66
2023/02/21 04:23:31;;;;;;;5.20;2.03;;;;;;;;;;5035527;28;20056;-66
2023/02/21 04:25:56;;;;;;;6.18;2.40;;;;;;;;;;5044554;28;20484;-66
2023/02/21 04:28:22;;;;;;;6.17;2.60;;;;;;;;;;5038406;28;20013;-65
2023/02/21 04:30:47;;;;;;;7.03;2.00;;;;;;;;;;5044867;28;20044;-65
2023/02/21 04:33:12;;;;;;;6.53;2.55;;;;;;;;;;5037918;28;20043;-65
2023/02/21 04:35:37;;;;;;;5.53;2.10;;;;;;;;;;5031998;28;20496;-67
2023/02/21 04:38:02;;;;;;;6.57;2.57;;;;;;;;;;5041431;28;20037;-66
2023/02/21 04:40:27;;;;;;;7.10;2.70;;;;;;;;;;5046238;28;20047;-66
2023/02/21 04:42:52;;;;;;;7.37;2.77;;;;;;;;;;5047157;28;20064;-65
2023/02/21 04:45:18;;;;;;;8.02;2.95;;;;;;;;;;5036979;28;20432;-66
2023/02/21 04:47:43;;;;;;;6.53;3.00;;;;;;;;;;5035699;28;20511;-65
2023/02/21 04:50:08;;;;;;;5.90;2.40;;;;;;;;;;5040160;28;20488;-66
2023/02/21 04:52:33;;;;;;;6.97;2.50;;;;;;;;;;5036430;28;20100;-66
2023/02/21 04:54:58;;;;;;;6.75;2.80;;;;;;;;;;5046370;28;20029;-66
2023/02/21 04:57:23;;;;;;;7.10;2.83;;;;;;;;;;5050197;28;20027;-66
2023/02/21 04:59:54;;;;;;;6.07;2.83;;;;;;;;;;5042307;28;20623;-66
2023/02/21 05:02:19;;;;;;;6.35;2.80;;;;;;;;;;5030791;28;20026;-65
2023/02/21 05:04:44;;;;;;;6.80;3.22;;;;;;;;;;5026718;28;20022;-65
2023/02/21 05:07:10;;;;;;;7.00;3.07;;;;;;;;;;5029959;28;20474;-66
2023/02/21 05:09:35;;;;;;;7.50;3.03;;;;;;;;;;5038670;28;20043;-66
2023/02/21 05:12:00;;;;;;;7.18;3.47;;;;;;;;;;5038460;28;20370;-66
2023/02/21 05:14:25;;;;;;;6.57;2.85;;;;;;;;;;5046365;28;20017;-66
2023/02/21 05:16:50;;;;;;;6.67;2.97;;;;;;;;;;5033354;28;20029;-66
2023/02/21 05:19:26;;;;;;;6.57;2.70;;;;;;;;;;5029213;28;20017;-67
2023/02/21 05:21:51;;;;;;;6.05;2.83;;;;;;;;;;5021197;28;20029;-66
2023/02/21 05:24:16;;;;;;;6.50;3.20;;;;;;;;;;5026960;28;20010;-66
2023/02/21 05:26:41;;;;;;;7.32;3.05;;;;;;;;;;5049608;28;20029;-66
2023/02/21 05:29:06;;;;;;;7.25;2.97;;;;;;;;;;5044871;28;20100;-66
2023/02/21 05:31:33;;;;;;;7.50;3.00;;;;;;;;;;5037998;28;20037;-66
2023/02/21 05:33:58;;;;;;;7.25;3.00;;;;;;;;;;5042679;28;20033;-66
2023/02/21 05:36:24;;;;;;;6.78;2.97;;;;;;;;;;5040173;28;20504;-66
2023/02/21 05:38:51;;;;;;;6.57;2.67;;;;;;;;;;5034126;28;20029;-65
2023/02/21 05:41:16;;;;;;;6.97;3.30;;;;;;;;;;5044561;28;20076;-65
2023/02/21 05:43:42;;;;;;;7.30;3.00;;;;;;;;;;5035634;28;20417;-66
2023/02/21 05:46:14;;;;;;;8.05;3.38;;;;;;;;;;5031171;28;20029;-66
2023/02/21 05:48:39;;;;;;;10.13;3.40;;;;;;;;;;5044951;28;20024;-66
2023/02/21 05:51:04;;;;;;;7.68;2.85;;;;;;;;;;5036454;28;20013;-66
2023/02/21 05:53:29;;;;;;;6.70;2.83;;;;;;;;;;5041885;28;20025;-65
2023/02/21 05:55:54;;;;;;;7.07;3.17;;;;;;;;;;5025591;28;20042;-66
2023/02/21 05:58:19;;;;;;;6.85;3.17;;;;;;;;;;5044258;28;20029;-66
2023/02/21 06:00:45;;;;;;;7.65;3.40;;;;;;;;;;5025915;28;20029;-66
2023/02/21 06:03:10;;;;;;;8.05;3.35;;;;;;;;;;5033412;28;20058;-65
2023/02/21 06:05:35;;;;;;;7.45;3.03;;;;;;;;;;5028728;28;20056;-66
2023/02/21 06:08:00;;;;;;;8.43;3.70;;;;;;;;;;5028130;28;20729;-65
2023/02/21 06:10:25;;;;;;;8.52;3.42;;;;;;;;;;5028332;28;20116;-64
2023/02/21 06:12:51;;;;;;;7.43;3.20;;;;;;;;;;5031356;28;20021;-64
2023/02/21 06:15:16;;;;;;;7.07;3.38;;;;;;;;;;5030193;28;20048;-65
2023/02/21 06:17:41;;;;;;;8.25;3.88;;;;;;;;;;5032753;28;20027;-66
2023/02/21 06:20:07;;;;;;;7.70;3.63;;;;;;;;;;5037567;28;20075;-65
2023/02/21 06:22:32;;;;;;;8.77;3.70;;;;;;;;;;5030368;28;22332;-65
2023/02/21 06:24:58;;;;;;;12.52;3.70;;;;;;;;;;5022359;28;20029;-65
2023/02/21 06:27:23;;;;;;;7.38;3.28;;;;;;;;;;5033733;28;20032;-64
2023/02/21 06:29:48;;;;;;;7.90;3.33;;;;;;;;;;5027603;28;20152;-65
2023/02/21 06:32:13;;;;;;;8.07;3.70;;;;;;;;;;5027225;28;20022;-64
2023/02/21 06:34:38;;;;;;;10.88;3.85;;;;;;;;;;5026775;28;20021;-64
2023/02/21 06:37:03;;;;;;;9.18;3.88;;;;;;;;;;5026308;28;20017;-65
2023/02/21 06:39:28;;;;;;;8.63;3.60;;;;;;;;;;5045413;28;20021;-64
2023/02/21 06:41:54;;;;;;;8.83;3.60;;;;;;;;;;5043536;28;20310;-64
2023/02/21 06:44:19;;;;;;;8.35;3.70;;;;;;;;;;5051147;28;20078;-64
2023/02/21 06:46:45;;;;;;;8.23;3.77;;;;;;;;;;5051557;28;20070;-64
2023/02/21 06:49:11;;;;;;;7.97;3.60;;;;;;;;;;5037814;28;20326;-64
2023/02/21 06:51:37;;;;;;;8.00;3.70;;;;;;;;;;5030890;28;20018;-66
2023/02/21 06:54:03;;;;;;;8.38;3.65;;;;;;;;;;5030331;28;20017;-64
2023/02/21 06:56:28;;;;;;;9.70;4.13;;;;;;;;;;5030797;28;20523;-64
2023/02/21 06:58:54;;;;;;;11.00;4.10;;;;;;;;;;5031036;28;20025;-66
2023/02/21 07:01:19;;;;;;;8.70;3.73;;;;;;;;;;5026900;28;21774;-64
2023/02/21 07:03:45;;;;;;;8.40;3.83;;;;;;;;;;5021780;28;20484;-65
2023/02/21 07:06:10;;;;;;;10.50;3.85;;;;;;;;;;5028815;28;20075;-64
2023/02/21 07:08:35;;;;;;;10.30;4.00;;;;;;;;;;5028234;28;20132;-64
2023/02/21 07:11:00;;;;;;;8.00;3.40;;;;;;;;;;5048690;28;20033;-65
2023/02/21 07:13:25;;;;;;;7.70;3.50;;;;;;;;;;5039900;28;20459;-64
2023/02/21 07:15:50;;;;;;;11.23;4.25;;;;;;;;;;5031072;28;20084;-64
2023/02/21 07:18:16;;;;;;;9.82;4.18;;;;;;;;;;5029611;28;20029;-65
2023/02/21 07:20:41;;;;;;;8.77;3.72;;;;;;;;;;5028885;28;20033;-64
2023/02/21 07:23:06;;;;;;;8.77;4.20;;;;;;;;;;5028068;28;20051;-64
2023/02/21 07:25:31;;;;;;;9.18;4.20;;;;;;;;;;5017788;28;20486;-64
2023/02/21 07:27:56;;;;;;;14.73;4.50;;;;;;;;;;5029119;28;20029;-64
2023/02/21 07:30:21;;;;;;;8.37;3.77;;;;;;;;;;5037597;28;20037;-64
2023/02/21 07:32:46;;;;;;;10.40;4.23;;;;;;;;;;5037418;28;20025;-66
2023/02/21 07:35:12;;;;;;;11.70;4.25;;;;;;;;;;5029567;28;20032;-64
2023/02/21 07:37:37;;;;;;;11.57;4.63;;;;;;;;;;5028621;28;20030;-64
2023/02/21 07:40:03;;;;;;;11.50;4.30;;;;;;;;;;5026810;28;20440;-68
2023/02/21 07:42:28;;;;;;;9.00;4.15;;;;;;;;;;5031866;28;20607;-64
2023/02/21 07:44:55;;;;;;;10.93;4.60;;;;;;;;;;5032837;28;20060;-64
2023/02/21 07:47:20;;;;;;;9.75;4.43;;;;;;;;;;5028280;28;20489;-64
2023/02/21 07:49:45;;;;;;;9.68;4.10;;;;;;;;;;5025687;28;20032;-65
2023/02/21 07:52:11;;;;;;;11.10;5.30;;;;;;;;;;5029642;28;20374;-65
2023/02/21 07:54:36;;;;;;;7.85;3.95;;;;;;;;;;5028152;28;20032;-66
2023/02/21 07:57:01;;;;;;;9.50;4.43;;;;;;;;;;5033015;28;20025;-65
2023/02/21 07:59:26;;;;;;;10.80;4.57;;;;;;;;;;5031862;28;20037;-64
2023/02/21 08:01:51;;;;;;;9.80;4.43;;;;;;;;;;5028325;28;20463;-64
2023/02/21 08:04:20;;;;;;;9.90;4.65;;;;;;;;;;5026890;28;20074;-65
2023/02/21 08:06:45;;;;;;;10.20;4.85;;;;;;;;;;5030059;28;20022;-64
2023/02/21 08:09:10;;;;;;;10.25;4.82;;;;;;;;;;5030109;28;20079;-64
2023/02/21 08:11:35;;;;;;;10.20;4.60;;;;;;;;;;5029862;28;20454;-65
2023/02/21 08:14:01;;;;;;;10.57;5.10;;;;;;;;;;5028685;28;20032;-66
2023/02/21 08:16:27;;;;;;;11.80;4.90;;;;;;;;;;5029285;28;20033;-66
2023/02/21 08:18:52;;;;;;;11.43;4.68;;;;;;;;;;5029641;28;20044;-66
2023/02/21 08:21:17;;;;;;;12.10;4.83;;;;;;;;;;5049388;28;20029;-66
2023/02/21 08:23:42;;;;;;;12.60;5.90;;;;;;;;;;5039136;28;20025;-67
2023/02/21 08:26:07;;;;;;;10.07;4.70;;;;;;;;;;5019608;28;20021;-66
2023/02/21 08:28:32;;;;;;;9.52;4.18;;;;;;;;;;5029731;28;20028;-66
2023/02/21 08:30:58;;;;;;;10.83;5.03;;;;;;;;;;5029620;28;20051;-64
2023/02/21 08:33:23;;;;;;;9.45;4.78;;;;;;;;;;5029636;28;20028;-65
2023/02/21 08:35:48;;;;;;;10.77;4.80;;;;;;;;;;5029067;28;20025;-64
2023/02/21 08:38:13;;;;;;;10.18;4.53;;;;;;;;;;5023253;28;20028;-65
2023/02/21 08:40:38;;;;;;;9.40;4.23;;;;;;;;;;5028893;28;20017;-65
2023/02/21 08:43:04;;;;;;;10.93;5.00;;;;;;;;;;5028497;28;20037;-65
2023/02/21 08:45:30;;;;;;;10.10;4.70;;;;;;;;;;5030783;28;20025;-65
2023/02/21 08:47:56;;;;;;;10.23;4.60;;;;;;;;;;5033289;28;20021;-65
2023/02/21 08:50:22;;;;;;;10.45;4.72;;;;;;;;;;5032821;28;20040;-65
2023/02/21 08:52:47;;;;;;;10.40;4.68;;;;;;;;;;5033054;28;20468;-65
2023/02/21 08:55:13;;;;;;;10.85;4.47;;;;;;;;;;5032681;28;20089;-64
2023/02/21 08:57:38;;;;;;;11.93;4.75;;;;;;;;;;5031338;28;20029;-65
2023/02/21 09:00:10;;;;;;;10.60;4.70;;;;;;;;;;5030726;28;20056;-65
2023/02/21 09:02:38;;;;;;;10.27;4.72;;;;;;;;;;5031444;28;20079;-65
2023/02/21 09:05:04;;;;;;;9.65;4.30;;;;;;;;;;5032596;28;20096;-65
2023/02/21 09:07:32;;;;;;;10.02;4.22;;;;;;;;;;5033632;28;20536;-64
2023/02/21 09:09:57;;;;;;;9.80;4.30;;;;;;;;;;5034103;28;20021;-65
2023/02/21 09:12:22;;;;;;;8.57;3.90;;;;;;;;;;5033845;28;20128;-64
2023/02/21 09:14:47;;;;;;;12.68;4.47;;;;;;;;;;5030380;28;20034;-67
2023/02/21 09:17:13;;;;;;;9.43;3.95;;;;;;;;;;5032585;28;20401;-64
2023/02/21 09:19:38;;;;;;;9.85;4.07;;;;;;;;;;5032241;28;20072;-66
2023/02/21 09:22:06;;;;;;;10.40;4.75;;;;;;;;;;5032262;28;20029;-64
2023/02/21 09:24:31;;;;;;;10.70;4.43;;;;;;;;;;5032045;28;20017;-64
2023/02/21 09:27:03;;;;;;;8.30;4.00;;;;;;;;;;5031983;28;20018;-64
2023/02/21 09:29:29;;;;;;;9.05;4.07;;;;;;;;;;5024410;28;20021;-64
2023/02/21 09:31:54;;;;;;;9.50;4.10;;;;;;;;;;5032032;28;20032;-65
2023/02/21 09:34:21;;;;;;;8.43;3.53;;;;;;;;;;5032354;28;20017;-64
2023/02/21 09:36:47;;;;;;;9.35;3.85;;;;;;;;;;5032660;28;20025;-66
2023/02/21 09:39:12;;;;;;;7.78;3.85;;;;;;;;;;5032474;28;20021;-65
2023/02/21 09:41:38;;;;;;;9.27;4.18;;;;;;;;;;5031084;28;20032;-66
2023/02/21 09:44:05;;;;;;;8.95;3.92;;;;;;;;;;5031628;28;20022;-65
2023/02/21 09:46:30;;;;;;;;;;;;;;;;;;5033542;28;20021;-64
2023/02/21 09:48:55;;;;;;;8.80;3.75;;;;;;;;;;5032831;28;19935;-64
2023/02/21 09:51:20;;;;;;;8.57;3.90;;;;;;;;;;5032263;28;20045;-66
2023/02/21 09:53:46;;;;;;;8.20;3.87;;;;;;;;;;5033639;28;20408;-65
2023/02/21 09:56:11;;;;;;;8.77;4.15;;;;;;;;;;5030988;28;20029;-66
2023/02/21 09:58:39;;;;;;;8.85;3.85;;;;;;;;;;5035062;28;20022;-65
2023/02/21 10:01:07;;;;;;;9.23;4.20;;;;;;;;;;5034930;28;20101;-66
2023/02/21 10:03:38;;;;;;;8.52;3.90;;;;;;;;;;5038745;28;20108;-65
2023/02/21 10:06:03;;;;;;;8.70;4.00;;;;;;;;;;5031017;28;20030;-66
2023/02/21 10:08:36;;;;;;;10.00;3.80;;;;;;;;;;5031765;28;20028;-66
2023/02/21 10:11:19;;;;;;;8.75;3.80;;;;;;;;;;5032076;28;20021;-66
2023/02/21 10:13:50;;;;;;;9.32;4.15;;;;;;;;;;5030615;28;20100;-65
2023/02/21 10:16:25;;;;;;;10.68;4.30;;;;;;;;;;5031270;28;20025;-65
2023/02/21 10:19:08;;;;;;;9.10;3.85;;;;;;;;;;5028992;28;20110;-65
2023/02/21 10:21:36;;;;;;;8.05;3.75;;;;;;;;;;5012780;28;20033;-66
2023/02/21 10:24:03;;;;;;;9.57;4.15;;;;;;;;;;5011743;28;20026;-66
2023/02/21 10:26:32;;;;;;;7.38;3.47;;;;;;;;;;5019820;28;20075;-66
2023/02/21 10:28:57;;;;;;;8.15;3.55;;;;;;;;;;5019927;28;20060;-66
2023/02/21 10:31:22;;;;;;;8.15;3.65;;;;;;;;;;5021418;28;20053;-68
2023/02/21 10:33:48;;;;;;;6.95;3.65;;;;;;;;;;5027148;28;20044;-65
2023/02/21 10:36:16;;;;;;;7.73;3.47;;;;;;;;;;5022715;28;20497;-65
2023/02/21 10:38:43;;;;;;;6.75;3.10;;;;;;;;;;5027587;28;20506;-65
2023/02/21 10:41:09;;;;;;;7.38;3.05;;;;;;;;;;5030378;28;20025;-65
2023/02/21 10:43:41;;;;;;;7.85;3.33;;;;;;;;;;5030796;28;20022;-65
2023/02/21 10:46:25;;;;;;;7.63;3.22;;;;;;;;;;5030280;28;20090;-64
2023/02/21 10:48:52;;;;;;;9.20;3.83;;;;;;;;;;5025935;28;20420;-65
2023/02/21 10:51:37;;;;;;;7.70;3.88;;;;;;;;;;5029661;28;20021;-65
2023/02/21 10:54:18;;;;;;;6.93;2.85;;;;;;;;;;5029745;28;20091;-66
2023/02/21 10:56:43;;;;;;;8.45;3.75;;;;;;;;;;5030476;28;20025;-65
2023/02/21 10:59:17;;;;;;;8.63;3.40;;;;;;;;;;5030857;28;20381;-65
2023/02/21 11:01:43;;;;;;;8.48;3.67;;;;;;;;;;5029943;28;20051;-66
2023/02/21 11:04:18;;;;;;;7.90;3.50;;;;;;;;;;5029075;28;20488;-65
2023/02/21 11:06:45;;;;;;;7.40;3.15;;;;;;;;;;5029737;28;20025;-66
2023/02/21 11:09:28;;;;;;;7.75;3.38;;;;;;;;;;5030756;28;20033;-65
2023/02/21 11:12:12;;;;;;;7.70;3.50;;;;;;;;;;5030455;28;20022;-65
2023/02/21 11:14:37;;;;;;;8.48;3.45;;;;;;;;;;5029946;28;20465;-65
2023/02/21 11:17:10;;;;;;;7.60;3.47;;;;;;;;;;5030254;28;20075;-66
2023/02/21 11:19:42;;;;;;;7.82;3.47;;;;;;;;;;5023526;28;20112;-65
2023/02/21 11:22:08;;;;;;;7.55;3.58;;;;;;;;;;5029518;28;20056;-65
2023/02/21 11:24:33;;;;;;;7.28;3.40;;;;;;;;;;5029767;28;20445;-65
2023/02/21 11:26:58;;;;;;;7.50;3.40;;;;;;;;;;5030721;28;20021;-65
2023/02/21 11:29:25;;;;;;;8.23;3.80;;;;;;;;;;5022122;28;20029;-66
2023/02/21 11:31:51;;;;;;;7.88;3.50;;;;;;;;;;5016258;28;20506;-65
2023/02/21 11:34:18;;;;;;;7.63;3.03;;;;;;;;;;5018739;28;20025;-65
2023/02/21 11:36:43;;;;;;;;;;;;;;;;;;5031372;28;20029;-66
2023/02/21 11:39:16;;;;;;;6.70;2.92;;;;;;;;;;5030283;28;19916;-65
2023/02/21 11:41:48;;;;;;;8.30;3.58;;;;;;;;;;5030237;28;20388;-65
2023/02/21 11:44:13;;;;;;;;;;;;;;;;;;5030284;28;20021;-65
2023/02/21 11:46:44;;;;;;;8.00;3.15;;;;;;;;;;5029848;28;20009;-65
2023/02/21 11:49:12;;;;;;;7.00;3.05;;;;;;;;;;5028426;28;20024;-65
2023/02/21 11:51:43;;;;;;;6.65;3.20;;;;;;;;;;5029158;28;20485;-65
2023/02/21 11:54:08;;;;;;;8.07;3.20;;;;;;;;;;5029775;28;20037;-65
2023/02/21 11:56:48;;;;;;;8.02;3.70;;;;;;;;;;5029976;28;20110;-65
2023/02/21 11:59:23;;;;;;;9.80;3.67;;;;;;;;;;5030196;28;20087;-64
2023/02/21 12:01:55;;;;;;;8.68;3.45;;;;;;;;;;5030008;28;20025;-65
2023/02/21 12:04:35;;;;;;;8.70;3.50;;;;;;;;;;5026227;28;20018;-64
2023/02/21 12:07:07;;;;;;;8.55;3.15;;;;;;;;;;5029231;28;20335;-66
2023/02/21 12:09:51;;;;;;;8.32;3.53;;;;;;;;;;5010233;28;20030;-66
2023/02/21 12:12:37;;;;;;;8.07;3.75;;;;;;;;;;5010178;28;20362;-66
2023/02/21 12:15:21;;;;;;;9.15;3.83;;;;;;;;;;5009425;28;20030;-66
2023/02/21 12:17:57;;;;;;;8.95;3.50;;;;;;;;;;5012890;28;20476;-66
2023/02/21 12:20:25;;;;;;;7.63;3.03;;;;;;;;;;5026883;28;20120;-66
2023/02/21 12:22:59;;;;;;;9.48;3.58;;;;;;;;;;5033524;28;20032;-66
2023/02/21 12:25:30;;;;;;;7.60;3.45;;;;;;;;;;5031112;28;20021;-65
2023/02/21 12:27:55;;;;;;;7.13;3.30;;;;;;;;;;5032273;28;20045;-66
2023/02/21 12:30:26;;;;;;;7.97;3.30;;;;;;;;;;5034816;28;20108;-65
2023/02/21 12:33:10;;;;;;;8.32;3.30;;;;;;;;;;5033250;28;20017;-63
2023/02/21 12:35:36;;;;;;;;;;;;;;;;;;5026756;28;20017;-66
2023/02/21 12:38:06;;;;;;;6.35;2.92;;;;;;;;;;5032405;28;19978;-64
2023/02/21 12:40:37;;;;;;;9.35;3.30;;;;;;;;;;5028598;28;20045;-63
2023/02/21 12:43:03;;;;;;;9.32;3.65;;;;;;;;;;5016591;28;20113;-65
2023/02/21 12:45:48;;;;;;;8.35;3.15;;;;;;;;;;5032623;28;20025;-64
2023/02/21 12:48:16;;;;;;;7.80;3.45;;;;;;;;;;5033265;28;20021;-64
2023/02/21 12:50:44;;;;;;;8.63;3.33;;;;;;;;;;5033356;28;20500;-65
2023/02/21 12:53:12;;;;;;;8.65;3.60;;;;;;;;;;5034933;28;20095;-65
2023/02/21 12:55:45;;;;;;;7.80;3.30;;;;;;;;;;5029274;28;20053;-64
2023/02/21 12:58:20;;;;;;;9.30;3.50;;;;;;;;;;5014135;28;20026;-66
2023/02/21 13:00:48;;;;;;;8.32;4.03;;;;;;;;;;5013552;28;20053;-64
2023/02/21 13:03:33;;;;;;;6.85;3.17;;;;;;;;;;5013255;28;20553;-64
2023/02/21 13:06:08;;;;;;;8.25;3.63;;;;;;;;;;5015907;28;20389;-66
2023/02/21 13:08:42;;;;;;;7.20;3.40;;;;;;;;;;5027589;28;20028;-64
2023/02/21 13:11:10;;;;;;;9.13;4.07;;;;;;;;;;5030591;28;20085;-64
2023/02/21 13:13:35;;;;;;;8.70;3.60;;;;;;;;;;5032963;28;20061;-64
2023/02/21 13:16:01;;;;;;;6.80;3.60;;;;;;;;;;5024072;28;20045;-64
2023/02/21 13:18:29;;;;;;;8.90;3.40;;;;;;;;;;5032631;28;20024;-64
2023/02/21 13:20:56;;;;;;;10.40;4.30;;;;;;;;;;5028279;28;20099;-64
2023/02/21 13:26:33;;;;;;;7.88;3.70;;;;;;;;;;5028462;28;20024;-65
2023/02/21 13:28:59;;;;;;;9.50;3.85;;;;;;;;;;5031861;28;20021;-64
2023/02/21 13:31:44;;;;;;;7.57;3.47;;;;;;;;;;5029603;28;20021;-66
2023/02/21 13:34:13;;;;;;;7.60;3.80;;;;;;;;;;5023557;28;20083;-64
2023/02/21 13:36:38;;;;;;;7.97;3.42;;;;;;;;;;5032729;28;20026;-66
2023/02/21 13:39:12;;;;;;;7.47;3.40;;;;;;;;;;5032557;28;20091;-64
2023/02/21 13:41:42;;;;;;;8.27;3.72;;;;;;;;;;5031366;28;20060;-64
2023/02/21 13:44:10;;;;;;;7.93;3.50;;;;;;;;;;5030720;28;20098;-65
2023/02/21 13:46:35;;;;;;;9.98;3.33;;;;;;;;;;5032633;28;20017;-65
2023/02/21 13:49:19;;;;;;;7.85;3.30;;;;;;;;;;5032490;28;20027;-64
2023/02/21 13:51:48;;;;;;;7.85;3.20;;;;;;;;;;5032281;28;20017;-65
2023/02/21 13:54:20;;;;;;;7.00;3.17;;;;;;;;;;5029143;28;20032;-65
2023/02/21 13:56:47;;;;;;;9.00;3.45;;;;;;;;;;5026218;28;20031;-65
2023/02/21 13:59:21;;;;;;;8.68;3.53;;;;;;;;;;5032281;28;20025;-64
2023/02/21 14:01:49;;;;;;;8.60;3.30;;;;;;;;;;5032022;28;20029;-64
2023/02/21 14:04:33;;;;;;;8.32;3.70;;;;;;;;;;5028499;28;20025;-63
2023/02/21 14:06:58;;;;;;;7.25;3.40;;;;;;;;;;5025570;28;20086;-64
2023/02/21 14:09:24;;;;;;;8.57;3.50;;;;;;;;;;5031957;28;20022;-65
2023/02/21 14:11:51;;;;;;;8.52;3.28;;;;;;;;;;5032256;28;20041;-65
2023/02/21 14:14:16;;;;;;;;;;;;;;;;;;5031929;28;20535;-65
2023/02/21 14:16:47;;;;;;;9.15;3.72;;;;;;;;;;5031728;28;20364;-65
2023/02/21 14:19:21;;;;;;;7.47;3.63;;;;;;;;;;5032071;28;20087;-65
2023/02/21 14:21:48;;;;;;;8.02;3.33;;;;;;;;;;5029984;28;20124;-66
2023/02/21 14:24:20;;;;;;;7.97;3.50;;;;;;;;;;5031088;28;20021;-65
2023/02/21 14:26:45;;;;;;;;;;;;;;;;;;5032188;28;20025;-66
2023/02/21 14:29:15;;;;;;;7.78;3.45;;;;;;;;;;5029991;28;19995;-65
2023/02/21 14:31:48;;;;;;;8.43;3.47;;;;;;;;;;5029989;28;20033;-66
2023/02/21 14:34:16;;;;;;;8.00;3.50;;;;;;;;;;5025347;28;20021;-66
2023/02/21 14:36:42;;;;;;;7.22;3.40;;;;;;;;;;5031703;28;20018;-64
2023/02/21 14:39:07;;;;;;;8.75;3.85;;;;;;;;;;5031501;28;20163;-66
2023/02/21 14:41:41;;;;;;;9.03;4.10;;;;;;;;;;5033573;28;20044;-65
2023/02/21 14:44:22;;;;;;;10.48;3.60;;;;;;;;;;5020965;28;20079;-65
2023/02/21 14:47:05;;;;;;;8.25;3.25;;;;;;;;;;5025378;28;20025;-65
2023/02/21 14:49:38;;;;;;;7.25;3.42;;;;;;;;;;5030586;28;20029;-66
2023/02/21 14:52:03;;;;;;;;;;;;;;;;;;5030343;28;20021;-66
2023/02/21 14:54:28;;;;;;;7.78;3.28;;;;;;;;;;5030178;28;19909;-64
2023/02/21 14:57:05;;;;;;;9.10;3.40;;;;;;;;;;5030923;28;20556;-66
2023/02/21 14:59:56;;;;;;;9.82;3.85;;;;;;;;;;5030356;28;20037;-65
2023/02/21 15:02:38;;;;;;;8.25;3.10;;;;;;;;;;5029765;28;20401;-64
2023/02/21 15:05:13;;;;;;;7.15;3.20;;;;;;;;;;5030224;28;20022;-66
2023/02/21 15:07:44;;;;;;;9.40;3.35;;;;;;;;;;5031269;28;20036;-64
2023/02/21 15:10:20;;;;;;;7.38;3.08;;;;;;;;;;5030795;28;20029;-66
2023/02/21 15:12:50;;;;;;;8.43;3.53;;;;;;;;;;5030680;28;20022;-64
2023/02/21 15:15:17;;;;;;;8.23;2.90;;;;;;;;;;5029044;28;20025;-64
2023/02/21 15:17:43;;;;;;;6.78;3.08;;;;;;;;;;5029990;28;20557;-65
2023/02/21 15:20:13;;;;;;;6.53;3.10;;;;;;;;;;5029270;28;20040;-65
2023/02/21 15:22:38;;;;;;;7.57;3.08;;;;;;;;;;5011173;28;20034;-64
2023/02/21 15:25:06;;;;;;;7.90;3.23;;;;;;;;;;5010649;28;20040;-64
2023/02/21 15:27:32;;;;;;;7.50;3.53;;;;;;;;;;5021378;28;20029;-64
2023/02/21 15:30:03;;;;;;;8.60;3.05;;;;;;;;;;5029758;28;20029;-66
2023/02/21 15:32:28;;;;;;;7.95;3.50;;;;;;;;;;5010348;28;20026;-66
2023/02/21 15:34:53;;;;;;;8.23;3.13;;;;;;;;;;5018606;28;20037;-67
2023/02/21 15:37:21;;;;;;;8.40;3.20;;;;;;;;;;5021534;28;20385;-64
2023/02/21 15:39:51;;;;;;;7.43;3.22;;;;;;;;;;5028936;28;20021;-65
2023/02/21 15:42:17;;;;;;;7.95;3.30;;;;;;;;;;5035698;28;20036;-64
2023/02/21 15:44:48;;;;;;;8.93;3.20;;;;;;;;;;5040488;28;20468;-64
2023/02/21 15:47:16;;;;;;;6.95;2.85;;;;;;;;;;5031838;28;20108;-65
2023/02/21 15:49:44;;;;;;;8.00;3.33;;;;;;;;;;5030576;28;20063;-65
2023/02/21 15:52:26;;;;;;;9.63;3.10;;;;;;;;;;5030165;28;20071;-63
2023/02/21 15:55:11;;;;;;;7.10;2.90;;;;;;;;;;5026664;28;20025;-65
2023/02/21 15:57:36;;;;;;;7.22;2.53;;;;;;;;;;5026013;28;20033;-66
2023/02/21 16:00:33;;;;;;;7.50;2.67;;;;;;;;;;5030213;28;20013;-66
2023/02/21 16:03:17;;;;;;;8.10;3.00;;;;;;;;;;5017841;28;20108;-65
2023/02/21 16:05:42;;;;;;;6.68;2.55;;;;;;;;;;5029242;28;20021;-66
2023/02/21 16:08:12;;;;;;;7.00;2.92;;;;;;;;;;5028755;28;20034;-66
2023/02/21 16:10:40;;;;;;;6.45;2.63;;;;;;;;;;5028443;28;20088;-66
2023/02/21 16:13:05;;;;;;;8.25;2.72;;;;;;;;;;5029383;28;20048;-66
2023/02/21 16:15:32;;;;;;;6.97;2.97;;;;;;;;;;5029279;28;20021;-64
2023/02/21 16:18:00;;;;;;;7.35;2.90;;;;;;;;;;5029901;28;20029;-67
2023/02/21 16:20:36;;;;;;;6.72;2.90;;;;;;;;;;5029559;28;20017;-65
2023/02/21 16:23:11;;;;;;;7.38;3.00;;;;;;;;;;5029879;28;20455;-65
2023/02/21 16:25:56;;;;;;;7.63;3.33;;;;;;;;;;5028545;28;20048;-64
2023/02/21 16:28:22;;;;;;;6.30;2.85;;;;;;;;;;5024018;28;20105;-64
2023/02/21 16:30:47;;;;;;;8.53;3.00;;;;;;;;;;5029399;28;20505;-65
2023/02/21 16:33:15;;;;;;;7.50;3.17;;;;;;;;;;5029517;28;20025;-64
2023/02/21 16:35:41;;;;;;;8.80;3.70;;;;;;;;;;5029601;28;20029;-66
2023/02/21 16:38:11;;;;;;;6.78;3.00;;;;;;;;;;5028405;28;20018;-65
2023/02/21 16:40:37;;;;;;;10.23;3.97;;;;;;;;;;5029722;28;20485;-66
2023/02/21 16:43:02;;;;;;;6.25;2.60;;;;;;;;;;5031132;28;20029;-64
2023/02/21 16:45:28;;;;;;;6.90;2.70;;;;;;;;;;5048999;28;20452;-66
2023/02/21 16:48:04;;;;;;;6.55;2.80;;;;;;;;;;5019696;28;20066;-66
2023/02/21 16:50:29;;;;;;;6.95;2.88;;;;;;;;;;5028871;28;20477;-64
2023/02/21 16:52:54;;;;;;;7.97;2.97;;;;;;;;;;5025183;28;20032;-64
2023/02/21 16:55:20;;;;;;;6.60;2.65;;;;;;;;;;5028183;28;20030;-66
2023/02/21 16:57:46;;;;;;;7.53;3.03;;;;;;;;;;5029329;28;20041;-66
2023/02/21 17:00:12;;;;;;;9.48;3.22;;;;;;;;;;5021464;28;20037;-65
2023/02/21 17:02:37;;;;;;;7.05;2.58;;;;;;;;;;5009650;28;20026;-66
2023/02/21 17:05:02;;;;;;;6.22;2.50;;;;;;;;;;5011914;28;20026;-64
2023/02/21 17:07:27;;;;;;;6.43;2.63;;;;;;;;;;5027855;28;20485;-66